Time;durP1;ratioP1;P1;durP2;ratioP2;P2;SDS_P1;SDS_P2;PMS_P1;PMS_P2;Temp;Humidity;BMP_temperature;BMP_pressure;BME280_temperature;BME280_humidity;BME280_pressure;Samples;Min_cycle;Max_cycle;Signal;HPM_P1;HPM_P2
2023/12/27 00:00:21;;;;;;;0.50;0.50;;;6.90;99.90;;;;;;6260663;22;20217;-83
2023/12/27 00:02:48;;;;;;;0.40;0.40;;;6.80;99.90;;;;;;6287051;22;20187;-80
2023/12/27 00:05:16;;;;;;;0.82;0.82;;;6.70;99.90;;;;;;6287309;22;20171;-80
2023/12/27 00:07:43;;;;;;;0.50;0.50;;;6.50;99.90;;;;;;6287274;22;20356;-81
2023/12/27 00:10:10;;;;;;;0.50;0.50;;;6.40;99.90;;;;;;6287870;22;20193;-84
2023/12/27 00:12:39;;;;;;;0.50;0.50;;;6.20;99.90;;;;;;6286814;22;20234;-81
2023/12/27 00:15:06;;;;;;;0.50;0.50;;;6.00;99.90;;;;;;6288116;22;20187;-82
2023/12/27 00:17:34;;;;;;;0.88;0.88;;;5.90;99.90;;;;;;6287878;22;20193;-82
2023/12/27 00:20:01;;;;;;;0.50;0.50;;;5.80;99.90;;;;;;6287744;22;20177;-84
2023/12/27 00:22:28;;;;;;;0.40;0.40;;;5.70;99.90;;;;;;6287117;22;20167;-79
2023/12/27 00:24:55;;;;;;;0.40;0.40;;;5.90;99.90;;;;;;6293501;22;20178;-80
2023/12/27 00:27:22;;;;;;;0.40;0.40;;;5.90;99.90;;;;;;6302644;22;20163;-80
2023/12/27 00:29:49;;;;;;;0.50;0.50;;;5.90;99.90;;;;;;6304124;22;20163;-81
2023/12/27 00:32:16;;;;;;;2.05;1.77;;;5.80;99.90;;;;;;6277942;22;20201;-81
2023/12/27 00:34:43;;;;;;;0.40;0.40;;;5.60;99.90;;;;;;6303864;22;20175;-82
2023/12/27 00:37:10;;;;;;;0.40;0.40;;;5.60;99.90;;;;;;6267006;22;20215;-80
2023/12/27 00:39:38;;;;;;;0.40;0.40;;;5.40;99.90;;;;;;6289262;22;20166;-83
2023/12/27 00:42:07;;;;;;;0.40;0.40;;;5.40;99.90;;;;;;6290376;22;20258;-82
2023/12/27 00:44:34;;;;;;;0.40;0.40;;;5.60;99.90;;;;;;6289901;22;20205;-82
2023/12/27 00:47:02;;;;;;;0.40;0.40;;;5.60;99.90;;;;;;6285979;22;20205;-81
2023/12/27 00:49:29;;;;;;;0.40;0.40;;;5.60;99.90;;;;;;6258771;22;20511;-79
2023/12/27 00:51:56;;;;;;;0.40;0.40;;;5.60;99.90;;;;;;6285794;22;20197;-82
2023/12/27 00:54:23;;;;;;;0.40;0.40;;;5.60;99.90;;;;;;6285608;22;20491;-81
2023/12/27 00:56:50;;;;;;;0.40;0.40;;;5.60;99.90;;;;;;6285949;22;20217;-81
2023/12/27 00:59:17;;;;;;;0.70;0.70;;;5.60;99.90;;;;;;6260687;22;20361;-81
2023/12/27 01:01:44;;;;;;;0.40;0.40;;;5.60;99.90;;;;;;6295019;22;20477;-81
2023/12/27 01:04:11;;;;;;;0.40;0.40;;;5.60;99.90;;;;;;6271794;22;20171;-80
2023/12/27 01:06:39;;;;;;;0.40;0.40;;;5.70;99.90;;;;;;6299233;22;20212;-80
2023/12/27 01:09:07;;;;;;;0.40;0.40;;;5.50;99.90;;;;;;6296961;22;20183;-83
2023/12/27 01:11:35;;;;;;;0.40;0.40;;;5.50;99.90;;;;;;6286921;22;20359;-80
2023/12/27 01:14:03;;;;;;;0.40;0.40;;;5.40;99.90;;;;;;6286862;22;20175;-82
2023/12/27 01:16:32;;;;;;;0.60;0.60;;;5.30;99.90;;;;;;6286923;22;20249;-81
2023/12/27 01:19:02;;;;;;;0.40;0.40;;;5.20;99.90;;;;;;6286110;22;20201;-82
2023/12/27 01:21:31;;;;;;;0.40;0.40;;;5.00;99.90;;;;;;6285816;22;20467;-82
2023/12/27 01:23:59;;;;;;;0.40;0.40;;;4.90;99.90;;;;;;6285577;22;20230;-82
2023/12/27 01:26:26;;;;;;;0.50;0.50;;;4.70;99.90;;;;;;6285522;22;20221;-83
2023/12/27 01:28:53;;;;;;;0.40;0.40;;;4.80;99.90;;;;;;6285799;22;20612;-80
2023/12/27 01:31:20;;;;;;;0.40;0.40;;;4.80;99.90;;;;;;6285716;22;20182;-80
2023/12/27 01:33:47;;;;;;;0.40;0.40;;;4.60;99.90;;;;;;6284970;22;20190;-80
2023/12/27 01:36:14;;;;;;;0.50;0.50;;;4.70;99.90;;;;;;6285546;22;20218;-82
2023/12/27 01:38:41;;;;;;;0.40;0.40;;;4.70;99.90;;;;;;6286011;22;20210;-81
2023/12/27 01:41:08;;;;;;;0.45;0.45;;;4.50;99.90;;;;;;6287099;22;20163;-81
2023/12/27 01:43:35;;;;;;;0.40;0.40;;;4.60;99.90;;;;;;6285838;22;20371;-82
2023/12/27 01:46:06;;;;;;;0.50;0.50;;;4.50;99.90;;;;;;6285661;22;20198;-80
2023/12/27 01:48:50;;;;;;;0.40;0.40;;;4.40;99.90;;;;;;6261136;22;20209;-80
2023/12/27 01:51:19;;;;;;;0.40;0.40;;;4.30;99.90;;;;;;6286173;22;20412;-81
2023/12/27 01:53:50;;;;;;;0.40;0.40;;;4.30;99.90;;;;;;6287134;22;20439;-82
2023/12/27 01:56:17;;;;;;;0.40;0.40;;;4.20;99.90;;;;;;6285876;22;20204;-80
2023/12/27 01:58:45;;;;;;;0.50;0.50;;;4.40;99.90;;;;;;6285375;22;20644;-82
2023/12/27 02:01:12;;;;;;;0.60;0.60;;;4.20;99.90;;;;;;6285479;22;20179;-80
2023/12/27 02:03:41;;;;;;;0.40;0.40;;;4.10;99.90;;;;;;6286645;22;20170;-79
2023/12/27 02:06:08;;;;;;;0.45;0.45;;;4.10;99.90;;;;;;6286997;22;20181;-85
2023/12/27 02:08:35;;;;;;;1.50;1.40;;;4.10;99.90;;;;;;6288039;22;20209;-82
2023/12/27 02:11:02;;;;;;;1.95;1.50;;;4.10;99.90;;;;;;6288778;22;20175;-82
2023/12/27 02:13:29;;;;;;;0.40;0.40;;;4.00;99.90;;;;;;6288880;22;20175;-81
2023/12/27 02:15:57;;;;;;;0.43;0.43;;;4.10;99.90;;;;;;6288838;22;20222;-83
2023/12/27 02:18:25;;;;;;;0.40;0.40;;;4.10;99.90;;;;;;6288307;22;20171;-82
2023/12/27 02:20:54;;;;;;;0.40;0.40;;;3.90;99.90;;;;;;6287995;22;20171;-84
2023/12/27 02:23:21;;;;;;;0.50;0.50;;;3.90;99.90;;;;;;6288490;22;20213;-82
2023/12/27 02:25:51;;;;;;;0.40;0.40;;;3.70;99.90;;;;;;6288236;22;20167;-80
2023/12/27 02:28:18;;;;;;;0.50;0.50;;;3.80;99.90;;;;;;6288184;22;20182;-81
2023/12/27 02:30:48;;;;;;;0.60;0.60;;;3.80;99.90;;;;;;6236069;22;20479;-83
2023/12/27 02:33:15;;;;;;;0.40;0.40;;;3.80;99.90;;;;;;6261776;22;20163;-80
2023/12/27 02:35:43;;;;;;;0.40;0.40;;;3.70;99.90;;;;;;6289188;22;20565;-81
2023/12/27 02:38:10;;;;;;;0.40;0.40;;;3.90;99.90;;;;;;6303837;22;20167;-81
2023/12/27 02:40:37;;;;;;;0.40;0.40;;;3.90;99.90;;;;;;6306116;22;20193;-81
2023/12/27 02:43:04;;;;;;;0.40;0.40;;;3.80;99.90;;;;;;6306839;22;20182;-80
2023/12/27 02:45:31;;;;;;;0.40;0.40;;;3.70;99.90;;;;;;6303507;22;20182;-80
2023/12/27 02:47:58;;;;;;;0.40;0.40;;;3.80;99.90;;;;;;6262338;22;20171;-82
2023/12/27 02:50:26;;;;;;;0.40;0.40;;;3.70;99.90;;;;;;6287621;22;20407;-84
2023/12/27 02:52:53;;;;;;;0.40;0.40;;;3.70;99.90;;;;;;6287582;22;20197;-80
2023/12/27 02:55:20;;;;;;;0.32;0.32;;;3.60;99.90;;;;;;6287720;22;20171;-81
2023/12/27 02:57:47;;;;;;;0.40;0.40;;;3.80;99.90;;;;;;6261885;22;20195;-81
2023/12/27 03:00:14;;;;;;;0.50;0.50;;;3.70;99.90;;;;;;6288677;22;20225;-79
2023/12/27 03:02:42;;;;;;;0.70;0.70;;;3.70;99.90;;;;;;6261787;22;20179;-80
2023/12/27 03:05:13;;;;;;;0.40;0.40;;;3.70;99.90;;;;;;6291618;22;20173;-84
2023/12/27 03:07:40;;;;;;;0.52;0.52;;;3.60;99.90;;;;;;6301590;22;20182;-81
2023/12/27 03:10:07;;;;;;;0.40;0.40;;;3.60;99.90;;;;;;6302829;22;20175;-81
2023/12/27 03:12:34;;;;;;;0.40;0.40;;;3.70;99.90;;;;;;6303040;22;20185;-81
2023/12/27 03:15:01;;;;;;;0.40;0.40;;;3.70;99.90;;;;;;6276281;22;20186;-80
2023/12/27 03:17:28;;;;;;;0.85;0.85;;;3.80;99.90;;;;;;6277222;22;20198;-79
2023/12/27 03:19:55;;;;;;;0.40;0.40;;;3.70;99.90;;;;;;6303942;22;20186;-83
2023/12/27 03:22:22;;;;;;;0.30;0.30;;;3.70;99.90;;;;;;6278400;22;20167;-79
2023/12/27 03:24:49;;;;;;;3.85;1.08;;;3.70;99.90;;;;;;6303896;22;20170;-81
2023/12/27 03:27:17;;;;;;;0.40;0.40;;;3.70;99.90;;;;;;6304384;22;20520;-79
2023/12/27 03:29:44;;;;;;;0.40;0.40;;;3.60;99.90;;;;;;6304470;22;20173;-78
2023/12/27 03:32:13;;;;;;;0.40;0.40;;;3.50;99.90;;;;;;6303007;22;20167;-81
2023/12/27 03:34:40;;;;;;;1.52;1.05;;;3.60;99.90;;;;;;6278365;22;20227;-78
2023/12/27 03:37:07;;;;;;;0.40;0.40;;;3.60;99.90;;;;;;6293333;22;20483;-82
2023/12/27 03:39:34;;;;;;;0.68;0.68;;;3.30;99.90;;;;;;6303901;22;20166;-79
2023/12/27 03:42:02;;;;;;;0.57;0.57;;;3.50;99.90;;;;;;6254533;22;20174;-82
2023/12/27 03:44:32;;;;;;;0.73;0.73;;;3.40;99.90;;;;;;6305379;22;20166;-82
2023/12/27 03:46:59;;;;;;;0.70;0.70;;;3.40;99.90;;;;;;6304692;22;20179;-81
2023/12/27 03:49:26;;;;;;;0.47;0.47;;;3.30;99.90;;;;;;6305147;22;20181;-78
2023/12/27 03:51:53;;;;;;;0.40;0.40;;;3.30;99.90;;;;;;6305594;22;20179;-81
2023/12/27 03:54:20;;;;;;;0.50;0.50;;;3.10;99.90;;;;;;6305493;22;20190;-81
2023/12/27 03:56:47;;;;;;;0.50;0.50;;;3.20;99.90;;;;;;6304447;22;20209;-81
2023/12/27 03:59:15;;;;;;;2.25;0.73;;;3.20;99.90;;;;;;6302690;22;20171;-79
2023/12/27 04:01:43;;;;;;;1.25;1.15;;;3.10;99.90;;;;;;6303610;22;20175;-81
2023/12/27 04:04:10;;;;;;;0.40;0.40;;;2.80;99.90;;;;;;6299679;22;20185;-81
2023/12/27 04:06:38;;;;;;;1.40;1.10;;;2.80;99.90;;;;;;6288172;22;20472;-80
2023/12/27 04:09:05;;;;;;;0.68;0.68;;;2.70;99.90;;;;;;6288044;22;20171;-82
2023/12/27 04:11:32;;;;;;;0.40;0.40;;;2.70;99.90;;;;;;6287373;22;20171;-80
2023/12/27 04:14:00;;;;;;;0.80;0.80;;;2.70;99.90;;;;;;6260853;22;20175;-81
2023/12/27 04:16:26;;;;;;;1.65;0.93;;;2.60;99.90;;;;;;6262572;22;20195;-83
2023/12/27 04:18:53;;;;;;;0.63;0.63;;;2.40;99.90;;;;;;6286752;22;20209;-78
2023/12/27 04:21:21;;;;;;;0.40;0.40;;;2.40;99.90;;;;;;6287065;22;20175;-80
2023/12/27 04:23:48;;;;;;;0.40;0.40;;;2.60;99.90;;;;;;6260440;22;20198;-81
2023/12/27 04:26:16;;;;;;;0.63;0.63;;;2.60;99.90;;;;;;6286697;22;20175;-81
2023/12/27 04:28:44;;;;;;;0.40;0.40;;;2.70;99.90;;;;;;6286667;22;20174;-81
2023/12/27 04:31:11;;;;;;;0.40;0.40;;;2.70;99.90;;;;;;6267379;22;20212;-81
2023/12/27 04:33:38;;;;;;;0.40;0.40;;;2.60;99.90;;;;;;6302791;22;20162;-82
2023/12/27 04:36:07;;;;;;;0.40;0.40;;;2.60;99.90;;;;;;6303837;22;20228;-81
2023/12/27 04:38:34;;;;;;;0.60;0.60;;;2.60;99.90;;;;;;6275996;22;20206;-81
2023/12/27 04:41:09;;;;;;;0.50;0.50;;;2.50;99.90;;;;;;6296659;22;20191;-79
2023/12/27 04:43:36;;;;;;;0.38;0.38;;;2.60;99.90;;;;;;6287004;22;20281;-80
2023/12/27 04:46:09;;;;;;;0.40;0.40;;;2.50;99.90;;;;;;6286314;22;20171;-79
2023/12/27 04:48:36;;;;;;;0.40;0.40;;;2.40;99.90;;;;;;6287419;22;20159;-79
2023/12/27 04:51:04;;;;;;;1.55;1.25;;;2.60;99.90;;;;;;6289126;22;20176;-81
2023/12/27 04:53:31;;;;;;;0.40;0.40;;;2.70;99.90;;;;;;6286937;22;20572;-81
2023/12/27 04:55:58;;;;;;;0.57;0.57;;;2.50;99.90;;;;;;6288136;22;20171;-83
2023/12/27 04:58:25;;;;;;;0.40;0.40;;;2.50;99.90;;;;;;6287356;22;20171;-85
2023/12/27 05:00:55;;;;;;;0.40;0.40;;;2.40;99.90;;;;;;6287296;22;20182;-82
2023/12/27 05:03:22;;;;;;;1.08;1.02;;;2.30;99.90;;;;;;6286946;22;20218;-81
2023/12/27 05:05:50;;;;;;;0.40;0.40;;;2.30;99.90;;;;;;6287644;22;20563;-82
2023/12/27 05:08:17;;;;;;;0.50;0.50;;;2.40;99.90;;;;;;6260180;22;20186;-82
2023/12/27 05:10:44;;;;;;;0.40;0.40;;;2.30;99.90;;;;;;6287659;22;20475;-81
2023/12/27 05:13:12;;;;;;;0.40;0.40;;;2.30;99.90;;;;;;6287615;22;20223;-81
2023/12/27 05:15:41;;;;;;;0.40;0.40;;;2.30;99.90;;;;;;6276335;22;20253;-81
2023/12/27 05:18:08;;;;;;;0.70;0.70;;;2.30;99.90;;;;;;6300044;22;20194;-81
2023/12/27 05:20:35;;;;;;;0.40;0.40;;;2.20;99.90;;;;;;6299683;22;20170;-82
2023/12/27 05:23:02;;;;;;;0.50;0.50;;;2.20;99.90;;;;;;6302414;22;20159;-80
2023/12/27 05:25:30;;;;;;;0.40;0.40;;;2.30;99.90;;;;;;6303493;22;20183;-81
2023/12/27 05:27:57;;;;;;;0.40;0.40;;;2.20;99.90;;;;;;6290595;22;20171;-81
2023/12/27 05:30:25;;;;;;;0.40;0.40;;;2.30;99.90;;;;;;6289721;22;20184;-81
2023/12/27 05:32:54;;;;;;;0.40;0.40;;;2.20;99.90;;;;;;6290974;22;20195;-82
2023/12/27 05:35:21;;;;;;;0.80;0.80;;;2.10;99.90;;;;;;6294195;22;20197;-81
2023/12/27 05:37:48;;;;;;;0.50;0.50;;;2.10;99.90;;;;;;6290971;22;20202;-81
2023/12/27 05:40:15;;;;;;;0.40;0.40;;;2.00;99.90;;;;;;6292976;22;20171;-80
2023/12/27 05:42:43;;;;;;;0.40;0.40;;;2.30;99.90;;;;;;6289876;22;20178;-80
2023/12/27 05:45:09;;;;;;;0.30;0.30;;;2.20;99.90;;;;;;6259159;22;20190;-80
2023/12/27 05:47:36;;;;;;;0.40;0.40;;;2.00;99.90;;;;;;6284866;22;20181;-81
2023/12/27 05:50:04;;;;;;;0.40;0.40;;;2.00;99.90;;;;;;6286256;22;20217;-81
2023/12/27 05:52:31;;;;;;;1.00;0.98;;;2.00;99.90;;;;;;6258800;22;20179;-81
2023/12/27 05:54:58;;;;;;;0.70;0.70;;;1.80;99.90;;;;;;6285150;22;20175;-81
2023/12/27 05:57:25;;;;;;;0.30;0.30;;;2.00;99.90;;;;;;6285295;22;20217;-82
2023/12/27 05:59:53;;;;;;;0.40;0.40;;;1.90;99.90;;;;;;6285070;22;20221;-80
2023/12/27 06:02:20;;;;;;;0.40;0.40;;;2.00;99.90;;;;;;6284866;22;20167;-81
2023/12/27 06:04:47;;;;;;;0.45;0.45;;;1.90;99.90;;;;;;6285116;22;20170;-81
2023/12/27 06:07:14;;;;;;;0.40;0.40;;;2.10;99.90;;;;;;6284738;22;20182;-81
2023/12/27 06:09:42;;;;;;;6.35;2.15;;;2.00;99.90;;;;;;6284847;22;20439;-81
2023/12/27 06:12:09;;;;;;;0.40;0.40;;;1.90;99.90;;;;;;6285813;22;20205;-80
2023/12/27 06:14:38;;;;;;;0.63;0.63;;;2.00;99.90;;;;;;6284845;22;20175;-81
2023/12/27 06:17:05;;;;;;;0.40;0.40;;;2.00;99.90;;;;;;6285712;22;20395;-81
2023/12/27 06:19:36;;;;;;;0.63;0.50;;;2.00;99.90;;;;;;6286667;22;20171;-81
2023/12/27 06:22:03;;;;;;;0.60;0.60;;;1.90;99.90;;;;;;6293600;22;20171;-81
2023/12/27 06:24:31;;;;;;;0.30;0.30;;;1.80;99.90;;;;;;6276279;22;20180;-80
2023/12/27 06:26:58;;;;;;;0.65;0.65;;;1.90;99.90;;;;;;6303525;22;20190;-81
2023/12/27 06:29:25;;;;;;;0.30;0.30;;;1.60;99.90;;;;;;6303413;22;20171;-81
2023/12/27 06:31:53;;;;;;;0.88;0.88;;;1.70;99.90;;;;;;6303909;22;20178;-81
2023/12/27 06:34:20;;;;;;;0.40;0.40;;;2.00;99.90;;;;;;6300066;22;20187;-80
2023/12/27 06:36:48;;;;;;;0.65;0.65;;;1.90;99.90;;;;;;6292926;22;20201;-81
2023/12/27 06:39:16;;;;;;;0.40;0.40;;;1.90;99.90;;;;;;6286865;22;20233;-81
2023/12/27 06:41:43;;;;;;;0.85;0.85;;;1.90;99.90;;;;;;6286161;22;20185;-81
2023/12/27 06:44:10;;;;;;;0.30;0.30;;;2.00;99.90;;;;;;6285422;22;20171;-81
2023/12/27 06:46:37;;;;;;;0.93;0.93;;;1.90;99.90;;;;;;6259153;22;20238;-82
2023/12/27 06:49:05;;;;;;;0.40;0.40;;;1.90;99.90;;;;;;6285494;22;20171;-81
2023/12/27 06:51:32;;;;;;;0.40;0.40;;;1.80;99.90;;;;;;6285114;22;20597;-82
2023/12/27 06:54:01;;;;;;;0.30;0.30;;;1.80;99.90;;;;;;6285538;22;20194;-84
2023/12/27 06:56:29;;;;;;;0.50;0.50;;;1.90;99.90;;;;;;6284784;22;20173;-83
2023/12/27 06:58:56;;;;;;;1.25;1.15;;;1.80;99.90;;;;;;6285885;22;20193;-81
2023/12/27 07:01:24;;;;;;;0.88;0.88;;;2.10;99.90;;;;;;6260904;22;20214;-82
2023/12/27 07:03:52;;;;;;;0.75;0.75;;;2.10;99.90;;;;;;6287106;22;20167;-81
2023/12/27 07:06:19;;;;;;;0.60;0.60;;;2.20;99.90;;;;;;6287165;22;20178;-84
2023/12/27 07:08:46;;;;;;;2.03;1.92;;;2.10;99.90;;;;;;6261378;22;20167;-81
2023/12/27 07:11:19;;;;;;;0.70;0.70;;;1.90;99.90;;;;;;6286836;22;20175;-82
2023/12/27 07:13:47;;;;;;;0.43;0.43;;;2.10;99.90;;;;;;6286998;22;20175;-82
2023/12/27 07:16:14;;;;;;;0.40;0.40;;;2.00;99.90;;;;;;6286787;22;20359;-80
2023/12/27 07:18:41;;;;;;;4.65;2.67;;;2.00;99.90;;;;;;6287133;22;20207;-82
2023/12/27 07:21:09;;;;;;;0.60;0.60;;;2.20;99.90;;;;;;6259976;22;20170;-80
2023/12/27 07:23:36;;;;;;;0.40;0.40;;;2.10;99.90;;;;;;6286809;22;20183;-82
2023/12/27 07:26:04;;;;;;;0.85;0.85;;;2.30;99.90;;;;;;6287356;22;20224;-81
2023/12/27 07:28:31;;;;;;;0.40;0.40;;;2.30;99.90;;;;;;6286465;22;20179;-82
2023/12/27 07:30:58;;;;;;;0.40;0.40;;;2.30;99.90;;;;;;6259649;22;20179;-85
2023/12/27 07:33:26;;;;;;;0.40;0.40;;;2.00;99.90;;;;;;6259749;22;20186;-81
2023/12/27 07:35:53;;;;;;;0.60;0.60;;;2.00;99.90;;;;;;6286777;22;20270;-82
2023/12/27 07:38:20;;;;;;;0.40;0.40;;;2.30;99.90;;;;;;6286236;22;20357;-82
2023/12/27 07:40:47;;;;;;;0.35;0.35;;;2.30;99.90;;;;;;6259580;22;20227;-82
2023/12/27 07:43:14;;;;;;;0.40;0.40;;;2.30;99.90;;;;;;6286104;22;20178;-79
2023/12/27 07:45:43;;;;;;;2.53;1.40;;;2.40;99.90;;;;;;6286422;22;20171;-86
2023/12/27 07:48:11;;;;;;;0.50;0.50;;;2.40;99.90;;;;;;6259427;22;20540;-82
2023/12/27 07:50:40;;;;;;;0.98;0.98;;;2.40;99.90;;;;;;6286702;22;20175;-81
2023/12/27 07:53:08;;;;;;;0.40;0.40;;;2.50;99.90;;;;;;6286965;22;20234;-81
2023/12/27 07:55:35;;;;;;;0.50;0.50;;;2.50;99.90;;;;;;6285605;22;20182;-82
2023/12/27 07:58:04;;;;;;;0.50;0.50;;;2.50;99.90;;;;;;6286374;22;20214;-82
2023/12/27 08:00:32;;;;;;;0.82;0.60;;;2.50;99.90;;;;;;6285035;22;20171;-81
2023/12/27 08:02:59;;;;;;;0.85;0.85;;;2.50;99.90;;;;;;6285342;22;20487;-81
2023/12/27 08:05:27;;;;;;;1.30;0.73;;;2.60;99.90;;;;;;6258526;22;20170;-81
2023/12/27 08:07:54;;;;;;;0.50;0.50;;;2.50;99.90;;;;;;6286704;22;20175;-82
2023/12/27 08:10:22;;;;;;;0.88;0.88;;;2.60;99.90;;;;;;6285016;22;20194;-82
2023/12/27 08:12:49;;;;;;;0.40;0.40;;;2.70;99.90;;;;;;6286361;22;20182;-83
2023/12/27 08:15:16;;;;;;;0.40;0.40;;;2.70;99.90;;;;;;6285757;22;20485;-80
2023/12/27 08:17:43;;;;;;;2.45;2.25;;;2.70;99.90;;;;;;6258960;22;20507;-81
2023/12/27 08:20:12;;;;;;;0.85;0.85;;;2.80;99.90;;;;;;6285551;22;20171;-80
2023/12/27 08:22:39;;;;;;;0.95;0.82;;;2.90;99.90;;;;;;6285261;22;20172;-81
2023/12/27 08:25:12;;;;;;;0.40;0.40;;;2.90;99.90;;;;;;6286039;22;20244;-83
2023/12/27 08:27:39;;;;;;;0.80;0.80;;;3.10;99.90;;;;;;6285599;22;20445;-81
2023/12/27 08:30:06;;;;;;;1.60;0.73;;;3.10;99.90;;;;;;6285557;22;20479;-81
2023/12/27 08:32:33;;;;;;;0.40;0.40;;;3.10;99.90;;;;;;6286296;22;20205;-80
2023/12/27 08:35:00;;;;;;;0.40;0.40;;;3.30;99.90;;;;;;6285274;22;20181;-80
2023/12/27 08:37:27;;;;;;;0.40;0.40;;;3.30;99.90;;;;;;6258342;22;20195;-81
2023/12/27 08:39:55;;;;;;;0.40;0.40;;;3.20;99.90;;;;;;6284775;22;20159;-80
2023/12/27 08:42:21;;;;;;;1.02;1.02;;;3.20;99.90;;;;;;6285809;22;20347;-80
2023/12/27 08:44:49;;;;;;;0.50;0.50;;;3.20;99.90;;;;;;6285638;22;20197;-79
2023/12/27 08:47:16;;;;;;;0.40;0.40;;;3.40;99.90;;;;;;6285755;22;20175;-80
2023/12/27 08:49:43;;;;;;;0.47;0.47;;;3.40;99.90;;;;;;6285988;22;20202;-79
2023/12/27 08:52:11;;;;;;;1.60;1.02;;;3.40;99.90;;;;;;6285227;22;20179;-79
2023/12/27 08:54:38;;;;;;;0.50;0.50;;;3.50;99.90;;;;;;6285499;22;20261;-80
2023/12/27 08:57:05;;;;;;;1.13;1.02;;;3.50;99.90;;;;;;6286642;22;20175;-80
2023/12/27 08:59:32;;;;;;;0.63;0.63;;;3.50;99.90;;;;;;6286427;22;20167;-81
2023/12/27 09:01:59;;;;;;;0.40;0.40;;;3.50;99.90;;;;;;6288050;22;20170;-82
2023/12/27 09:04:27;;;;;;;0.82;0.82;;;3.50;99.90;;;;;;6287496;22;20217;-81
2023/12/27 09:06:53;;;;;;;0.40;0.40;;;3.60;99.90;;;;;;6287163;22;20189;-82
2023/12/27 09:09:21;;;;;;;0.40;0.40;;;3.70;99.90;;;;;;6288558;22;20190;-82
2023/12/27 09:11:48;;;;;;;1.33;1.33;;;3.70;99.90;;;;;;6261649;22;20197;-82
2023/12/27 09:14:15;;;;;;;0.40;0.40;;;3.80;99.90;;;;;;6289586;22;20175;-80
2023/12/27 09:16:42;;;;;;;0.77;0.77;;;3.80;99.90;;;;;;6287461;22;20202;-81
2023/12/27 09:19:10;;;;;;;0.40;0.40;;;3.90;99.90;;;;;;6286094;22;20425;-81
2023/12/27 09:21:46;;;;;;;2.35;2.25;;;3.90;99.90;;;;;;6285200;22;20179;-81
2023/12/27 09:24:14;;;;;;;0.40;0.40;;;4.00;99.90;;;;;;6285128;22;20171;-81
2023/12/27 09:26:41;;;;;;;0.50;0.50;;;4.00;99.90;;;;;;6284939;22;20170;-80
2023/12/27 09:29:11;;;;;;;0.40;0.40;;;4.10;99.90;;;;;;6284663;22;20483;-81
2023/12/27 09:31:38;;;;;;;0.40;0.40;;;4.00;99.90;;;;;;6285374;22;20379;-81
2023/12/27 09:34:05;;;;;;;0.82;0.82;;;4.00;99.90;;;;;;6285582;22;20238;-80
2023/12/27 09:36:33;;;;;;;0.50;0.50;;;4.10;99.90;;;;;;6286788;22;20179;-80
2023/12/27 09:39:00;;;;;;;0.40;0.40;;;4.40;99.90;;;;;;6259022;22;20387;-82
2023/12/27 09:41:27;;;;;;;0.40;0.40;;;4.40;99.90;;;;;;6285507;22;20470;-81
2023/12/27 09:43:54;;;;;;;0.40;0.40;;;4.40;99.90;;;;;;6285278;22;20243;-81
2023/12/27 09:46:24;;;;;;;1.58;1.20;;;4.30;99.90;;;;;;6285362;22;20159;-81
2023/12/27 09:48:53;;;;;;;0.40;0.40;;;4.40;99.90;;;;;;6285143;22;20201;-81
2023/12/27 09:51:23;;;;;;;1.10;1.05;;;4.40;99.90;;;;;;6259340;22;20487;-80
2023/12/27 09:53:51;;;;;;;1.27;1.20;;;4.40;99.90;;;;;;6285342;22;20180;-80
2023/12/27 09:56:21;;;;;;;0.43;0.43;;;4.60;99.90;;;;;;6285289;22;20483;-84
2023/12/27 09:58:50;;;;;;;0.40;0.40;;;4.70;99.90;;;;;;6285473;22;20222;-81
2023/12/27 10:01:22;;;;;;;0.40;0.40;;;4.60;99.90;;;;;;6285653;22;20171;-79
2023/12/27 10:04:34;;;;;;;4.43;2.47;;;4.50;99.90;;;;;;6295115;22;20164;-80
2023/12/27 10:07:03;;;;;;;0.40;0.40;;;4.60;99.90;;;;;;6149037;23;20185;-81
2023/12/27 10:09:30;;;;;;;0.40;0.40;;;4.60;99.90;;;;;;6273288;22;20181;-81
2023/12/27 10:12:00;;;;;;;0.40;0.40;;;4.70;99.90;;;;;;6291662;22;20483;-81
2023/12/27 10:14:30;;;;;;;0.68;0.68;;;4.60;99.90;;;;;;6286609;22;20402;-82
2023/12/27 10:16:57;;;;;;;0.88;0.88;;;4.80;99.90;;;;;;6293849;22;20171;-82
2023/12/27 10:19:47;;;;;;;1.33;1.33;;;4.70;99.90;;;;;;6297946;22;20175;-79
2023/12/27 10:22:14;;;;;;;1.20;1.02;;;4.70;99.90;;;;;;6275539;22;20170;-81
2023/12/27 10:24:41;;;;;;;0.40;0.40;;;4.90;99.90;;;;;;6298869;22;20225;-85
2023/12/27 10:27:10;;;;;;;0.90;0.90;;;4.80;99.90;;;;;;6286463;22;20499;-82
2023/12/27 10:29:48;;;;;;;0.40;0.40;;;4.90;99.90;;;;;;6259430;22;20209;-81
2023/12/27 10:32:19;;;;;;;0.85;0.82;;;4.90;99.90;;;;;;6284897;22;20155;-82
2023/12/27 10:34:46;;;;;;;0.85;0.85;;;4.90;99.90;;;;;;6287277;22;20459;-80
2023/12/27 10:37:16;;;;;;;2.50;0.70;;;4.90;99.90;;;;;;6260543;22;20250;-81
2023/12/27 10:39:44;;;;;;;0.40;0.40;;;4.80;99.90;;;;;;6234931;22;20503;-81
2023/12/27 10:42:18;;;;;;;0.55;0.55;;;4.90;99.90;;;;;;6286994;22;20401;-83
2023/12/27 10:44:48;;;;;;;0.90;0.90;;;5.10;99.90;;;;;;6259796;22;20456;-82
2023/12/27 10:47:19;;;;;;;1.85;1.40;;;5.10;99.90;;;;;;6261628;22;20172;-81
2023/12/27 10:49:50;;;;;;;0.50;0.50;;;5.20;99.90;;;;;;6287596;22;20191;-79
2023/12/27 10:52:20;;;;;;;0.50;0.50;;;5.20;99.90;;;;;;6261326;22;20167;-84
2023/12/27 10:54:51;;;;;;;0.40;0.40;;;5.20;99.90;;;;;;6287225;22;20223;-83
2023/12/27 10:57:19;;;;;;;0.68;0.68;;;5.10;99.90;;;;;;6286701;22;20183;-80
2023/12/27 10:59:47;;;;;;;0.50;0.50;;;5.10;99.90;;;;;;6286726;22;20194;-81
2023/12/27 11:02:14;;;;;;;0.40;0.40;;;5.10;99.90;;;;;;6287384;22;20186;-83
2023/12/27 11:04:44;;;;;;;0.40;0.40;;;5.20;99.90;;;;;;6287012;22;20494;-81
2023/12/27 11:07:12;;;;;;;0.50;0.50;;;5.20;99.90;;;;;;6286287;22;20448;-82
2023/12/27 11:09:41;;;;;;;0.40;0.40;;;5.20;99.90;;;;;;6286429;22;20505;-83
2023/12/27 11:12:09;;;;;;;0.50;0.50;;;5.30;99.90;;;;;;6261689;22;20178;-82
2023/12/27 11:14:39;;;;;;;0.40;0.40;;;5.30;99.90;;;;;;6262028;22;20175;-82
2023/12/27 11:17:10;;;;;;;0.70;0.70;;;5.30;99.90;;;;;;6263523;22;20187;-81
2023/12/27 11:19:39;;;;;;;1.33;1.25;;;5.30;99.90;;;;;;6287847;22;20183;-81
2023/12/27 11:22:06;;;;;;;0.57;0.57;;;5.30;99.90;;;;;;6287372;22;20625;-81
2023/12/27 11:24:36;;;;;;;10.07;1.30;;;5.30;99.90;;;;;;6287291;22;20178;-82
2023/12/27 11:27:04;;;;;;;0.73;0.73;;;5.30;99.90;;;;;;6285804;22;20182;-81
2023/12/27 11:29:31;;;;;;;0.40;0.40;;;5.20;99.90;;;;;;6286573;22;20175;-82
2023/12/27 11:31:59;;;;;;;0.40;0.40;;;5.10;99.90;;;;;;6260861;22;20187;-82
2023/12/27 11:34:26;;;;;;;0.68;0.68;;;5.30;99.90;;;;;;6287994;22;20194;-80
2023/12/27 11:36:54;;;;;;;1.95;1.77;;;5.30;99.90;;;;;;6286585;22;20290;-81
2023/12/27 11:39:28;;;;;;;0.85;0.85;;;5.30;99.90;;;;;;6286326;22;20198;-85
2023/12/27 11:41:57;;;;;;;2.65;2.45;;;5.40;99.90;;;;;;6287314;22;20171;-81
2023/12/27 11:44:38;;;;;;;0.50;0.50;;;5.40;99.90;;;;;;6285946;22;20333;-80
2023/12/27 11:47:13;;;;;;;0.45;0.45;;;5.40;99.90;;;;;;6287132;22;20170;-82
2023/12/27 11:49:40;;;;;;;0.50;0.50;;;5.40;99.90;;;;;;6286114;22;20174;-82
2023/12/27 11:52:08;;;;;;;0.70;0.70;;;5.40;99.90;;;;;;6285932;22;20181;-80
2023/12/27 11:54:35;;;;;;;0.40;0.40;;;5.30;99.90;;;;;;6259517;22;20182;-82
2023/12/27 11:57:03;;;;;;;1.58;1.50;;;5.30;99.90;;;;;;6286492;22;20213;-82
2023/12/27 11:59:32;;;;;;;0.57;0.57;;;5.20;99.90;;;;;;6286500;22;20202;-80
2023/12/27 12:02:01;;;;;;;0.40;0.40;;;5.20;99.90;;;;;;6286681;22;20483;-84
2023/12/27 12:04:50;;;;;;;0.50;0.50;;;5.30;99.90;;;;;;6287295;22;20159;-83
2023/12/27 12:07:44;;;;;;;0.40;0.40;;;5.10;99.90;;;;;;6289082;22;20160;-82
2023/12/27 12:10:25;;;;;;;0.40;0.40;;;5.20;99.90;;;;;;6287300;22;20202;-82
2023/12/27 12:12:55;;;;;;;0.50;0.50;;;5.00;99.90;;;;;;6302073;22;20182;-82
2023/12/27 12:15:22;;;;;;;0.40;0.40;;;5.00;99.90;;;;;;6273841;22;20167;-82
2023/12/27 12:17:52;;;;;;;0.40;0.40;;;5.00;99.90;;;;;;6303232;22;20185;-82
2023/12/27 12:20:19;;;;;;;4.43;4.00;;;5.00;99.90;;;;;;6299857;22;20177;-80
2023/12/27 12:22:48;;;;;;;0.40;0.40;;;5.10;99.90;;;;;;6288055;22;20181;-82
2023/12/27 12:25:22;;;;;;;4.20;3.90;;;5.10;99.90;;;;;;6286505;22;20171;-81
2023/12/27 12:27:48;;;;;;;3.42;1.15;;;5.10;99.90;;;;;;6286554;22;20161;-81
2023/12/27 12:30:17;;;;;;;5.38;1.55;;;5.10;99.90;;;;;;6286533;22;20170;-81
2023/12/27 12:32:45;;;;;;;0.70;0.70;;;5.20;99.90;;;;;;6260097;22;20273;-82
2023/12/27 12:35:13;;;;;;;0.50;0.50;;;5.10;99.90;;;;;;6260292;22;20186;-82
2023/12/27 12:37:41;;;;;;;0.70;0.70;;;5.10;99.90;;;;;;6260580;22;20187;-85
2023/12/27 12:40:11;;;;;;;0.50;0.50;;;5.00;99.90;;;;;;6259863;22;20680;-83
2023/12/27 12:42:39;;;;;;;1.38;1.25;;;5.10;99.90;;;;;;6287245;22;20159;-82
2023/12/27 12:45:07;;;;;;;0.40;0.40;;;5.00;99.90;;;;;;6259973;22;20171;-81
2023/12/27 12:47:36;;;;;;;0.40;0.40;;;4.90;99.90;;;;;;6286597;22;20193;-82
2023/12/27 12:50:05;;;;;;;0.50;0.50;;;5.00;99.90;;;;;;6259553;22;20194;-81
2023/12/27 12:52:38;;;;;;;1.50;1.40;;;4.90;99.90;;;;;;6286247;22;20186;-81
2023/12/27 12:55:07;;;;;;;0.40;0.40;;;4.90;99.90;;;;;;6286381;22;20182;-83
2023/12/27 12:57:35;;;;;;;0.77;0.77;;;5.00;99.90;;;;;;6261742;22;20175;-80
2023/12/27 13:00:02;;;;;;;0.90;0.88;;;4.90;99.90;;;;;;6286638;22;20240;-82
2023/12/27 13:02:29;;;;;;;0.60;0.60;;;4.80;99.90;;;;;;6287070;22;20181;-83